sensor_id;sensor_type;location;lat;lon;timestamp;temperature;humidity
22738;DHT22;11536;50.860;4.286;2023-04-03T00:01:57;4.80;99.90
22738;DHT22;11536;50.860;4.286;2023-04-03T00:04:23;4.70;99.90
22738;DHT22;11536;50.860;4.286;2023-04-03T00:06:48;4.70;99.90
22738;DHT22;11536;50.860;4.286;2023-04-03T00:09:14;4.70;99.90
22738;DHT22;11536;50.860;4.286;2023-04-03T00:11:39;4.70;99.90
22738;DHT22;11536;50.860;4.286;2023-04-03T00:14:05;4.70;99.90
22738;DHT22;11536;50.860;4.286;2023-04-03T00:16:31;4.80;99.90
22738;DHT22;11536;50.860;4.286;2023-04-03T00:18:57;4.80;99.90
22738;DHT22;11536;50.860;4.286;2023-04-03T00:21:23;4.90;99.90
22738;DHT22;11536;50.860;4.286;2023-04-03T00:23:48;4.90;99.90
22738;DHT22;11536;50.860;4.286;2023-04-03T00:26:14;4.90;99.90
22738;DHT22;11536;50.860;4.286;2023-04-03T00:28:39;5.00;99.90
22738;DHT22;11536;50.860;4.286;2023-04-03T00:31:05;5.10;99.90
22738;DHT22;11536;50.860;4.286;2023-04-03T00:33:31;5.10;99.90
22738;DHT22;11536;50.860;4.286;2023-04-03T00:35:56;5.10;99.90
22738;DHT22;11536;50.860;4.286;2023-04-03T00:38:22;5.20;99.90
22738;DHT22;11536;50.860;4.286;2023-04-03T00:40:49;5.10;99.90
22738;DHT22;11536;50.860;4.286;2023-04-03T00:43:21;5.00;99.90
22738;DHT22;11536;50.860;4.286;2023-04-03T00:45:52;5.00;99.90
22738;DHT22;11536;50.860;4.286;2023-04-03T00:50:53;5.10;99.90
22738;DHT22;11536;50.860;4.286;2023-04-03T00:53:24;5.00;99.90
22738;DHT22;11536;50.860;4.286;2023-04-03T00:55:51;5.00;99.90
22738;DHT22;11536;50.860;4.286;2023-04-03T00:58:20;5.00;99.90
22738;DHT22;11536;50.860;4.286;2023-04-03T01:00:50;5.00;99.90
22738;DHT22;11536;50.860;4.286;2023-04-03T01:03:21;5.00;99.90
22738;DHT22;11536;50.860;4.286;2023-04-03T01:05:47;5.10;99.90
22738;DHT22;11536;50.860;4.286;2023-04-03T01:08:13;5.10;99.90
22738;DHT22;11536;50.860;4.286;2023-04-03T01:10:38;5.10;99.90
22738;DHT22;11536;50.860;4.286;2023-04-03T01:13:27;5.10;99.90
22738;DHT22;11536;50.860;4.286;2023-04-03T01:15:53;5.10;99.90
22738;DHT22;11536;50.860;4.286;2023-04-03T01:18:20;5.10;99.90
22738;DHT22;11536;50.860;4.286;2023-04-03T01:25:51;5.10;99.90
22738;DHT22;11536;50.860;4.286;2023-04-03T01:28:23;5.20;99.90
22738;DHT22;11536;50.860;4.286;2023-04-03T01:33:47;5.10;99.90
22738;DHT22;11536;50.860;4.286;2023-04-03T01:36:19;5.10;99.90
22738;DHT22;11536;50.860;4.286;2023-04-03T01:38:46;5.10;99.90
22738;DHT22;11536;50.860;4.286;2023-04-03T01:41:11;5.10;99.90
22738;DHT22;11536;50.860;4.286;2023-04-03T01:43:37;5.10;99.90
22738;DHT22;11536;50.860;4.286;2023-04-03T01:46:03;5.10;99.90
22738;DHT22;11536;50.860;4.286;2023-04-03T01:48:28;5.10;99.90
22738;DHT22;11536;50.860;4.286;2023-04-03T01:50:54;5.10;99.90
22738;DHT22;11536;50.860;4.286;2023-04-03T01:53:20;5.00;99.90
22738;DHT22;11536;50.860;4.286;2023-04-03T01:55:45;5.00;99.90
22738;DHT22;11536;50.860;4.286;2023-04-03T01:58:11;5.00;99.90
22738;DHT22;11536;50.860;4.286;2023-04-03T02:00:37;5.00;99.90
22738;DHT22;11536;50.860;4.286;2023-04-03T02:03:03;5.00;99.90
22738;DHT22;11536;50.860;4.286;2023-04-03T02:05:28;5.00;99.90
22738;DHT22;11536;50.860;4.286;2023-04-03T02:07:54;5.00;99.90
22738;DHT22;11536;50.860;4.286;2023-04-03T02:10:20;5.00;99.90
22738;DHT22;11536;50.860;4.286;2023-04-03T02:12:45;5.00;99.90
22738;DHT22;11536;50.860;4.286;2023-04-03T02:15:11;5.00;99.90
22738;DHT22;11536;50.860;4.286;2023-04-03T02:17:36;5.00;99.90
22738;DHT22;11536;50.860;4.286;2023-04-03T02:20:03;5.00;99.90
22738;DHT22;11536;50.860;4.286;2023-04-03T02:22:29;5.00;99.90
22738;DHT22;11536;50.860;4.286;2023-04-03T02:24:54;5.00;99.90
22738;DHT22;11536;50.860;4.286;2023-04-03T02:27:20;5.00;99.90
22738;DHT22;11536;50.860;4.286;2023-04-03T02:29:46;5.00;99.90
22738;DHT22;11536;50.860;4.286;2023-04-03T02:32:11;5.00;99.90
22738;DHT22;11536;50.860;4.286;2023-04-03T02:34:37;5.00;99.90
22738;DHT22;11536;50.860;4.286;2023-04-03T02:37:02;5.00;99.90
22738;DHT22;11536;50.860;4.286;2023-04-03T02:39:28;5.00;99.90
22738;DHT22;11536;50.860;4.286;2023-04-03T02:41:54;5.00;99.90
22738;DHT22;11536;50.860;4.286;2023-04-03T02:44:19;4.90;99.90
22738;DHT22;11536;50.860;4.286;2023-04-03T02:46:45;5.00;99.90
22738;DHT22;11536;50.860;4.286;2023-04-03T02:49:11;4.90;99.90
22738;DHT22;11536;50.860;4.286;2023-04-03T02:51:36;4.90;99.90
22738;DHT22;11536;50.860;4.286;2023-04-03T02:54:02;4.90;99.90
22738;DHT22;11536;50.860;4.286;2023-04-03T02:56:28;4.90;99.90
22738;DHT22;11536;50.860;4.286;2023-04-03T02:58:53;4.90;99.90
22738;DHT22;11536;50.860;4.286;2023-04-03T03:01:20;4.90;99.90
22738;DHT22;11536;50.860;4.286;2023-04-03T03:03:46;4.90;99.90
22738;DHT22;11536;50.860;4.286;2023-04-03T03:06:16;4.90;99.90
22738;DHT22;11536;50.860;4.286;2023-04-03T03:08:42;4.90;99.90
22738;DHT22;11536;50.860;4.286;2023-04-03T03:11:08;4.90;99.90
22738;DHT22;11536;50.860;4.286;2023-04-03T03:13:35;4.80;99.90
22738;DHT22;11536;50.860;4.286;2023-04-03T03:16:01;4.80;99.90
22738;DHT22;11536;50.860;4.286;2023-04-03T03:18:27;4.80;99.90
22738;DHT22;11536;50.860;4.286;2023-04-03T03:20:54;4.80;99.90
22738;DHT22;11536;50.860;4.286;2023-04-03T03:23:23;4.80;99.90
22738;DHT22;11536;50.860;4.286;2023-04-03T03:25:58;4.80;99.90
22738;DHT22;11536;50.860;4.286;2023-04-03T03:28:24;4.90;99.90
22738;DHT22;11536;50.860;4.286;2023-04-03T03:30:50;4.80;99.90
22738;DHT22;11536;50.860;4.286;2023-04-03T03:33:16;4.80;99.90
22738;DHT22;11536;50.860;4.286;2023-04-03T03:35:42;4.80;99.90
22738;DHT22;11536;50.860;4.286;2023-04-03T03:38:08;4.80;99.90
22738;DHT22;11536;50.860;4.286;2023-04-03T03:40:34;4.80;99.90
22738;DHT22;11536;50.860;4.286;2023-04-03T03:43:00;4.80;99.90
22738;DHT22;11536;50.860;4.286;2023-04-03T03:45:26;4.80;99.90
22738;DHT22;11536;50.860;4.286;2023-04-03T03:47:52;4.80;99.90
22738;DHT22;11536;50.860;4.286;2023-04-03T03:50:17;4.80;99.90
22738;DHT22;11536;50.860;4.286;2023-04-03T03:52:43;4.80;99.90
22738;DHT22;11536;50.860;4.286;2023-04-03T03:55:09;4.80;99.90
22738;DHT22;11536;50.860;4.286;2023-04-03T03:57:34;4.70;99.90
22738;DHT22;11536;50.860;4.286;2023-04-03T04:00:00;4.70;99.90
22738;DHT22;11536;50.860;4.286;2023-04-03T04:02:26;4.80;99.90
22738;DHT22;11536;50.860;4.286;2023-04-03T04:04:51;4.70;99.90
22738;DHT22;11536;50.860;4.286;2023-04-03T04:07:17;4.70;99.90
22738;DHT22;11536;50.860;4.286;2023-04-03T04:09:42;4.60;99.90
22738;DHT22;11536;50.860;4.286;2023-04-03T04:12:08;4.70;99.90
22738;DHT22;11536;50.860;4.286;2023-04-03T04:14:34;4.60;99.90
22738;DHT22;11536;50.860;4.286;2023-04-03T04:16:59;4.60;99.90
22738;DHT22;11536;50.860;4.286;2023-04-03T04:19:27;4.60;99.90
22738;DHT22;11536;50.860;4.286;2023-04-03T04:21:53;4.60;99.90
22738;DHT22;11536;50.860;4.286;2023-04-03T04:24:18;4.60;99.90
22738;DHT22;11536;50.860;4.286;2023-04-03T04:26:44;4.50;99.90
22738;DHT22;11536;50.860;4.286;2023-04-03T04:29:10;4.50;99.90
22738;DHT22;11536;50.860;4.286;2023-04-03T04:31:36;4.50;99.90
22738;DHT22;11536;50.860;4.286;2023-04-03T04:34:02;4.50;99.90
22738;DHT22;11536;50.860;4.286;2023-04-03T04:36:27;4.50;99.90
22738;DHT22;11536;50.860;4.286;2023-04-03T04:38:53;4.50;99.90
22738;DHT22;11536;50.860;4.286;2023-04-03T04:41:22;4.50;99.90
22738;DHT22;11536;50.860;4.286;2023-04-03T04:43:49;4.40;99.90
22738;DHT22;11536;50.860;4.286;2023-04-03T04:46:15;4.40;99.90
22738;DHT22;11536;50.860;4.286;2023-04-03T04:48:40;4.40;99.90
22738;DHT22;11536;50.860;4.286;2023-04-03T04:51:06;4.40;99.90
22738;DHT22;11536;50.860;4.286;2023-04-03T04:53:32;4.40;99.90
22738;DHT22;11536;50.860;4.286;2023-04-03T04:55:58;4.40;99.90
22738;DHT22;11536;50.860;4.286;2023-04-03T04:58:23;4.30;99.90
22738;DHT22;11536;50.860;4.286;2023-04-03T05:00:49;4.30;99.90
22738;DHT22;11536;50.860;4.286;2023-04-03T05:03:15;4.40;99.90
22738;DHT22;11536;50.860;4.286;2023-04-03T05:05:41;4.30;99.90
22738;DHT22;11536;50.860;4.286;2023-04-03T05:08:06;4.30;99.90
22738;DHT22;11536;50.860;4.286;2023-04-03T05:10:33;4.30;99.90
22738;DHT22;11536;50.860;4.286;2023-04-03T05:12:59;4.30;99.90
22738;DHT22;11536;50.860;4.286;2023-04-03T05:15:25;4.30;99.90
22738;DHT22;11536;50.860;4.286;2023-04-03T05:17:51;4.30;99.90
22738;DHT22;11536;50.860;4.286;2023-04-03T05:20:17;4.30;99.90
22738;DHT22;11536;50.860;4.286;2023-04-03T05:22:42;4.30;99.90
22738;DHT22;11536;50.860;4.286;2023-04-03T05:25:09;4.30;99.90
22738;DHT22;11536;50.860;4.286;2023-04-03T05:27:35;4.30;99.90
22738;DHT22;11536;50.860;4.286;2023-04-03T05:30:01;4.30;99.90
22738;DHT22;11536;50.860;4.286;2023-04-03T05:32:27;4.30;99.90
22738;DHT22;11536;50.860;4.286;2023-04-03T05:34:53;4.30;99.90
22738;DHT22;11536;50.860;4.286;2023-04-03T05:37:19;4.30;99.90
22738;DHT22;11536;50.860;4.286;2023-04-03T05:39:45;4.30;99.90
22738;DHT22;11536;50.860;4.286;2023-04-03T05:42:11;4.30;99.90
22738;DHT22;11536;50.860;4.286;2023-04-03T05:44:37;4.40;99.90
22738;DHT22;11536;50.860;4.286;2023-04-03T05:47:03;4.30;99.90
22738;DHT22;11536;50.860;4.286;2023-04-03T05:49:29;4.30;99.90
22738;DHT22;11536;50.860;4.286;2023-04-03T05:51:55;4.30;99.90
22738;DHT22;11536;50.860;4.286;2023-04-03T05:54:25;4.30;99.90
22738;DHT22;11536;50.860;4.286;2023-04-03T05:56:52;4.30;99.90
22738;DHT22;11536;50.860;4.286;2023-04-03T05:59:18;4.30;99.90
22738;DHT22;11536;50.860;4.286;2023-04-03T06:01:47;4.30;99.90
22738;DHT22;11536;50.860;4.286;2023-04-03T06:04:13;4.30;99.90
22738;DHT22;11536;50.860;4.286;2023-04-03T06:06:44;4.30;99.90
22738;DHT22;11536;50.860;4.286;2023-04-03T06:09:10;4.30;99.90
22738;DHT22;11536;50.860;4.286;2023-04-03T06:11:36;4.40;99.90
22738;DHT22;11536;50.860;4.286;2023-04-03T06:14:02;4.40;99.90
22738;DHT22;11536;50.860;4.286;2023-04-03T06:16:28;4.40;99.90
22738;DHT22;11536;50.860;4.286;2023-04-03T06:18:54;4.40;99.90
22738;DHT22;11536;50.860;4.286;2023-04-03T06:21:20;4.50;99.90
22738;DHT22;11536;50.860;4.286;2023-04-03T06:23:46;4.50;99.90
22738;DHT22;11536;50.860;4.286;2023-04-03T06:26:11;4.50;99.90
22738;DHT22;11536;50.860;4.286;2023-04-03T06:28:37;4.60;99.90
22738;DHT22;11536;50.860;4.286;2023-04-03T06:31:03;4.60;99.90
22738;DHT22;11536;50.860;4.286;2023-04-03T06:33:28;4.60;99.90
22738;DHT22;11536;50.860;4.286;2023-04-03T06:35:58;4.70;99.90
22738;DHT22;11536;50.860;4.286;2023-04-03T06:38:23;4.80;99.90
22738;DHT22;11536;50.860;4.286;2023-04-03T06:40:49;4.80;99.90
22738;DHT22;11536;50.860;4.286;2023-04-03T06:43:15;4.90;99.90
22738;DHT22;11536;50.860;4.286;2023-04-03T06:45:41;5.00;99.90
22738;DHT22;11536;50.860;4.286;2023-04-03T06:48:06;5.10;99.90
22738;DHT22;11536;50.860;4.286;2023-04-03T06:50:32;5.20;99.90
22738;DHT22;11536;50.860;4.286;2023-04-03T06:52:57;5.30;99.90
22738;DHT22;11536;50.860;4.286;2023-04-03T06:55:23;5.30;99.90
22738;DHT22;11536;50.860;4.286;2023-04-03T06:57:49;5.30;99.90
22738;DHT22;11536;50.860;4.286;2023-04-03T07:00:15;5.30;99.90
22738;DHT22;11536;50.860;4.286;2023-04-03T07:02:41;5.30;99.90
22738;DHT22;11536;50.860;4.286;2023-04-03T07:05:07;5.40;99.90
22738;DHT22;11536;50.860;4.286;2023-04-03T07:07:34;5.40;99.90
22738;DHT22;11536;50.860;4.286;2023-04-03T07:10:00;5.50;99.90
22738;DHT22;11536;50.860;4.286;2023-04-03T07:12:26;5.50;99.90
22738;DHT22;11536;50.860;4.286;2023-04-03T07:14:52;5.50;99.90
22738;DHT22;11536;50.860;4.286;2023-04-03T07:17:17;5.60;99.90
22738;DHT22;11536;50.860;4.286;2023-04-03T07:19:43;5.50;99.90
22738;DHT22;11536;50.860;4.286;2023-04-03T07:22:08;5.50;99.90
22738;DHT22;11536;50.860;4.286;2023-04-03T07:24:36;5.50;99.90
22738;DHT22;11536;50.860;4.286;2023-04-03T07:27:02;5.60;99.90
22738;DHT22;11536;50.860;4.286;2023-04-03T07:29:28;5.70;99.90
22738;DHT22;11536;50.860;4.286;2023-04-03T07:31:54;5.70;99.90
22738;DHT22;11536;50.860;4.286;2023-04-03T07:34:20;5.70;99.90
22738;DHT22;11536;50.860;4.286;2023-04-03T07:36:46;5.80;99.90
22738;DHT22;11536;50.860;4.286;2023-04-03T07:39:12;5.80;99.90
22738;DHT22;11536;50.860;4.286;2023-04-03T07:41:37;5.90;99.90
22738;DHT22;11536;50.860;4.286;2023-04-03T07:44:03;6.00;99.90
22738;DHT22;11536;50.860;4.286;2023-04-03T07:46:31;6.00;99.90
22738;DHT22;11536;50.860;4.286;2023-04-03T07:48:56;6.10;99.90
22738;DHT22;11536;50.860;4.286;2023-04-03T07:51:22;6.10;99.90
22738;DHT22;11536;50.860;4.286;2023-04-03T07:53:49;6.10;99.90
22738;DHT22;11536;50.860;4.286;2023-04-03T07:56:16;6.10;99.90
22738;DHT22;11536;50.860;4.286;2023-04-03T07:58:41;6.10;99.90
22738;DHT22;11536;50.860;4.286;2023-04-03T08:01:07;6.20;99.90
22738;DHT22;11536;50.860;4.286;2023-04-03T08:03:33;6.20;99.90
22738;DHT22;11536;50.860;4.286;2023-04-03T08:06:04;6.20;99.90
22738;DHT22;11536;50.860;4.286;2023-04-03T08:08:30;6.30;99.90
22738;DHT22;11536;50.860;4.286;2023-04-03T08:10:58;6.20;99.90
22738;DHT22;11536;50.860;4.286;2023-04-03T08:13:24;6.40;99.90
22738;DHT22;11536;50.860;4.286;2023-04-03T08:15:50;6.30;99.90
22738;DHT22;11536;50.860;4.286;2023-04-03T08:18:17;6.30;99.90
22738;DHT22;11536;50.860;4.286;2023-04-03T08:20:44;6.20;99.90
22738;DHT22;11536;50.860;4.286;2023-04-03T08:23:10;6.30;99.90
22738;DHT22;11536;50.860;4.286;2023-04-03T08:25:40;6.20;99.90
22738;DHT22;11536;50.860;4.286;2023-04-03T08:28:07;6.20;99.90
22738;DHT22;11536;50.860;4.286;2023-04-03T08:30:33;6.10;99.90
22738;DHT22;11536;50.860;4.286;2023-04-03T08:33:03;6.20;99.90
22738;DHT22;11536;50.860;4.286;2023-04-03T08:35:28;6.10;99.90
22738;DHT22;11536;50.860;4.286;2023-04-03T08:37:54;6.10;99.90
22738;DHT22;11536;50.860;4.286;2023-04-03T08:40:20;6.10;99.90
22738;DHT22;11536;50.860;4.286;2023-04-03T08:42:49;6.10;99.90
22738;DHT22;11536;50.860;4.286;2023-04-03T08:45:22;6.20;99.90
22738;DHT22;11536;50.860;4.286;2023-04-03T08:50:33;6.20;99.90
22738;DHT22;11536;50.860;4.286;2023-04-03T08:53:01;6.30;99.90
22738;DHT22;11536;50.860;4.286;2023-04-03T08:55:34;6.30;99.90
22738;DHT22;11536;50.860;4.286;2023-04-03T08:58:05;6.40;99.90
22738;DHT22;11536;50.860;4.286;2023-04-03T09:00:45;6.40;99.90
22738;DHT22;11536;50.860;4.286;2023-04-03T09:03:13;6.40;99.90
22738;DHT22;11536;50.860;4.286;2023-04-03T09:05:47;6.50;99.90
22738;DHT22;11536;50.860;4.286;2023-04-03T09:08:27;6.60;99.90
22738;DHT22;11536;50.860;4.286;2023-04-03T09:11:14;6.60;99.90
22738;DHT22;11536;50.860;4.286;2023-04-03T09:14:22;6.70;99.90
22738;DHT22;11536;50.860;4.286;2023-04-03T09:22:16;6.90;99.90
22738;DHT22;11536;50.860;4.286;2023-04-03T09:24:46;7.00;99.90
22738;DHT22;11536;50.860;4.286;2023-04-03T09:27:12;7.00;99.90
22738;DHT22;11536;50.860;4.286;2023-04-03T09:29:41;7.00;99.90
22738;DHT22;11536;50.860;4.286;2023-04-03T09:32:29;7.00;99.90
22738;DHT22;11536;50.860;4.286;2023-04-03T09:34:59;7.10;99.90
22738;DHT22;11536;50.860;4.286;2023-04-03T09:37:40;7.20;99.90
22738;DHT22;11536;50.860;4.286;2023-04-03T09:40:31;7.30;99.90
22738;DHT22;11536;50.860;4.286;2023-04-03T09:45:41;7.40;99.90
22738;DHT22;11536;50.860;4.286;2023-04-03T09:50:35;7.40;99.90
22738;DHT22;11536;50.860;4.286;2023-04-03T09:53:07;7.40;99.90
22738;DHT22;11536;50.860;4.286;2023-04-03T09:55:33;7.50;99.90
22738;DHT22;11536;50.860;4.286;2023-04-03T09:58:40;7.50;99.90
22738;DHT22;11536;50.860;4.286;2023-04-03T10:06:42;7.60;99.90
22738;DHT22;11536;50.860;4.286;2023-04-03T10:09:21;7.70;99.90
22738;DHT22;11536;50.860;4.286;2023-04-03T10:12:14;7.70;99.90
22738;DHT22;11536;50.860;4.286;2023-04-03T10:14:56;7.80;99.90
22738;DHT22;11536;50.860;4.286;2023-04-03T10:20:37;7.80;99.90
22738;DHT22;11536;50.860;4.286;2023-04-03T10:31:45;8.00;99.90
22738;DHT22;11536;50.860;4.286;2023-04-03T10:34:30;8.00;99.90
22738;DHT22;11536;50.860;4.286;2023-04-03T10:44:53;8.30;99.90
22738;DHT22;11536;50.860;4.286;2023-04-03T10:47:24;8.40;99.90
22738;DHT22;11536;50.860;4.286;2023-04-03T10:53:04;8.40;99.90
22738;DHT22;11536;50.860;4.286;2023-04-03T10:58:34;8.50;99.90
22738;DHT22;11536;50.860;4.286;2023-04-03T11:01:07;8.60;99.90
22738;DHT22;11536;50.860;4.286;2023-04-03T11:03:40;8.60;99.90
22738;DHT22;11536;50.860;4.286;2023-04-03T11:06:10;8.70;99.90
22738;DHT22;11536;50.860;4.286;2023-04-03T11:08:46;8.70;99.90
22738;DHT22;11536;50.860;4.286;2023-04-03T11:11:29;8.80;99.90
22738;DHT22;11536;50.860;4.286;2023-04-03T11:14:03;8.70;99.90
22738;DHT22;11536;50.860;4.286;2023-04-03T11:16:35;8.70;99.90
22738;DHT22;11536;50.860;4.286;2023-04-03T11:19:10;8.80;99.90
22738;DHT22;11536;50.860;4.286;2023-04-03T11:21:44;8.90;99.90
22738;DHT22;11536;50.860;4.286;2023-04-03T11:24:20;9.00;99.90
22738;DHT22;11536;50.860;4.286;2023-04-03T11:26:48;9.00;99.90
22738;DHT22;11536;50.860;4.286;2023-04-03T11:29:19;9.00;99.90
22738;DHT22;11536;50.860;4.286;2023-04-03T11:32:11;9.10;99.90
22738;DHT22;11536;50.860;4.286;2023-04-03T11:34:46;9.10;99.90
22738;DHT22;11536;50.860;4.286;2023-04-03T11:37:25;9.20;99.90
22738;DHT22;11536;50.860;4.286;2023-04-03T11:40:02;9.20;99.90
22738;DHT22;11536;50.860;4.286;2023-04-03T11:42:41;9.20;99.90
22738;DHT22;11536;50.860;4.286;2023-04-03T11:50:39;9.30;99.90
22738;DHT22;11536;50.860;4.286;2023-04-03T12:09:02;9.70;99.90
22738;DHT22;11536;50.860;4.286;2023-04-03T12:11:32;9.70;99.90
22738;DHT22;11536;50.860;4.286;2023-04-03T12:24:41;10.00;99.90
22738;DHT22;11536;50.860;4.286;2023-04-03T12:43:50;10.60;99.90
22738;DHT22;11536;50.860;4.286;2023-04-03T12:46:59;10.70;99.90
22738;DHT22;11536;50.860;4.286;2023-04-03T12:49:33;10.90;99.90
22738;DHT22;11536;50.860;4.286;2023-04-03T12:52:04;11.00;99.90
22738;DHT22;11536;50.860;4.286;2023-04-03T12:54:38;11.00;99.90
22738;DHT22;11536;50.860;4.286;2023-04-03T12:57:20;11.00;99.90
22738;DHT22;11536;50.860;4.286;2023-04-03T12:59:46;11.00;99.30
22738;DHT22;11536;50.860;4.286;2023-04-03T13:02:29;11.10;99.90
22738;DHT22;11536;50.860;4.286;2023-04-03T13:05:05;11.10;99.00
22738;DHT22;11536;50.860;4.286;2023-04-03T13:07:34;11.20;98.70
22738;DHT22;11536;50.860;4.286;2023-04-03T13:12:55;11.30;99.90
22738;DHT22;11536;50.860;4.286;2023-04-03T13:15:28;11.50;99.90
22738;DHT22;11536;50.860;4.286;2023-04-03T13:17:57;11.60;99.90
22738;DHT22;11536;50.860;4.286;2023-04-03T13:20:31;11.60;97.50
22738;DHT22;11536;50.860;4.286;2023-04-03T13:23:07;11.60;98.20
22738;DHT22;11536;50.860;4.286;2023-04-03T13:25:37;11.70;99.20
22738;DHT22;11536;50.860;4.286;2023-04-03T13:30:54;11.80;97.70
22738;DHT22;11536;50.860;4.286;2023-04-03T13:33:26;11.80;98.40
22738;DHT22;11536;50.860;4.286;2023-04-03T13:36:17;11.90;96.90
22738;DHT22;11536;50.860;4.286;2023-04-03T13:38:43;11.70;94.90
22738;DHT22;11536;50.860;4.286;2023-04-03T13:43:45;11.70;95.10
22738;DHT22;11536;50.860;4.286;2023-04-03T13:48:46;11.90;95.00
22738;DHT22;11536;50.860;4.286;2023-04-03T13:53:50;12.10;97.70
22738;DHT22;11536;50.860;4.286;2023-04-03T14:01:23;12.60;97.80
22738;DHT22;11536;50.860;4.286;2023-04-03T14:04:00;12.70;95.70
22738;DHT22;11536;50.860;4.286;2023-04-03T14:06:27;12.60;96.90
22738;DHT22;11536;50.860;4.286;2023-04-03T14:08:58;12.70;96.60
22738;DHT22;11536;50.860;4.286;2023-04-03T14:11:28;12.90;97.10
22738;DHT22;11536;50.860;4.286;2023-04-03T14:14:02;13.00;97.30
22738;DHT22;11536;50.860;4.286;2023-04-03T14:19:30;13.10;96.80
22738;DHT22;11536;50.860;4.286;2023-04-03T14:21:57;13.00;95.90
22738;DHT22;11536;50.860;4.286;2023-04-03T14:24:23;13.10;97.40
22738;DHT22;11536;50.860;4.286;2023-04-03T14:26:51;13.10;94.60
22738;DHT22;11536;50.860;4.286;2023-04-03T14:29:18;12.90;93.20
22738;DHT22;11536;50.860;4.286;2023-04-03T14:31:46;12.90;96.80
22738;DHT22;11536;50.860;4.286;2023-04-03T14:34:13;12.70;94.70
22738;DHT22;11536;50.860;4.286;2023-04-03T14:36:39;12.80;97.10
22738;DHT22;11536;50.860;4.286;2023-04-03T14:39:07;12.90;94.60
22738;DHT22;11536;50.860;4.286;2023-04-03T14:41:35;13.00;95.40
22738;DHT22;11536;50.860;4.286;2023-04-03T14:44:04;13.00;97.00
22738;DHT22;11536;50.860;4.286;2023-04-03T14:46:34;13.00;94.60
22738;DHT22;11536;50.860;4.286;2023-04-03T14:49:00;13.00;94.30
22738;DHT22;11536;50.860;4.286;2023-04-03T14:51:26;13.00;93.20
22738;DHT22;11536;50.860;4.286;2023-04-03T14:53:53;12.90;94.20
22738;DHT22;11536;50.860;4.286;2023-04-03T14:56:27;12.90;95.10
22738;DHT22;11536;50.860;4.286;2023-04-03T14:58:59;13.10;94.70
22738;DHT22;11536;50.860;4.286;2023-04-03T15:01:26;13.00;93.80
22738;DHT22;11536;50.860;4.286;2023-04-03T15:03:52;13.00;93.40
22738;DHT22;11536;50.860;4.286;2023-04-03T15:06:18;13.00;92.40
22738;DHT22;11536;50.860;4.286;2023-04-03T15:08:45;12.90;92.90
22738;DHT22;11536;50.860;4.286;2023-04-03T15:11:12;12.70;92.60
22738;DHT22;11536;50.860;4.286;2023-04-03T15:13:38;12.70;93.70
22738;DHT22;11536;50.860;4.286;2023-04-03T15:16:17;12.70;92.30
22738;DHT22;11536;50.860;4.286;2023-04-03T15:18:44;12.70;93.00
22738;DHT22;11536;50.860;4.286;2023-04-03T15:21:10;12.70;94.30
22738;DHT22;11536;50.860;4.286;2023-04-03T15:23:36;12.80;92.90
22738;DHT22;11536;50.860;4.286;2023-04-03T15:26:02;12.80;93.70
22738;DHT22;11536;50.860;4.286;2023-04-03T15:28:31;12.80;93.60
22738;DHT22;11536;50.860;4.286;2023-04-03T15:31:01;12.80;92.40
22738;DHT22;11536;50.860;4.286;2023-04-03T15:33:28;12.70;93.10
22738;DHT22;11536;50.860;4.286;2023-04-03T15:35:58;12.70;93.30
22738;DHT22;11536;50.860;4.286;2023-04-03T15:38:23;12.60;91.50
22738;DHT22;11536;50.860;4.286;2023-04-03T15:40:49;12.60;93.80
22738;DHT22;11536;50.860;4.286;2023-04-03T15:43:15;12.60;91.40
22738;DHT22;11536;50.860;4.286;2023-04-03T15:45:45;12.60;93.20
22738;DHT22;11536;50.860;4.286;2023-04-03T15:48:11;12.70;92.30
22738;DHT22;11536;50.860;4.286;2023-04-03T15:50:38;12.60;92.60
22738;DHT22;11536;50.860;4.286;2023-04-03T15:53:04;12.60;93.40
22738;DHT22;11536;50.860;4.286;2023-04-03T15:55:32;12.60;90.90
22738;DHT22;11536;50.860;4.286;2023-04-03T15:57:58;12.40;89.30
22738;DHT22;11536;50.860;4.286;2023-04-03T16:00:24;12.30;91.60
22738;DHT22;11536;50.860;4.286;2023-04-03T16:02:56;12.30;91.90
22738;DHT22;11536;50.860;4.286;2023-04-03T16:05:23;12.40;90.90
22738;DHT22;11536;50.860;4.286;2023-04-03T16:07:49;12.20;90.30
22738;DHT22;11536;50.860;4.286;2023-04-03T16:10:17;12.20;91.40
22738;DHT22;11536;50.860;4.286;2023-04-03T16:12:43;12.20;92.20
22738;DHT22;11536;50.860;4.286;2023-04-03T16:15:09;12.20;92.90
22738;DHT22;11536;50.860;4.286;2023-04-03T16:17:37;12.30;92.50
22738;DHT22;11536;50.860;4.286;2023-04-03T16:20:05;12.30;91.90
22738;DHT22;11536;50.860;4.286;2023-04-03T16:22:31;12.30;92.20
22738;DHT22;11536;50.860;4.286;2023-04-03T16:24:58;12.30;92.20
22738;DHT22;11536;50.860;4.286;2023-04-03T16:27:24;12.30;93.20
22738;DHT22;11536;50.860;4.286;2023-04-03T16:29:57;12.20;90.80
22738;DHT22;11536;50.860;4.286;2023-04-03T16:32:26;12.20;91.10
22738;DHT22;11536;50.860;4.286;2023-04-03T16:34:53;12.10;90.00
22738;DHT22;11536;50.860;4.286;2023-04-03T16:37:18;12.00;91.60
22738;DHT22;11536;50.860;4.286;2023-04-03T16:39:44;12.00;92.20
22738;DHT22;11536;50.860;4.286;2023-04-03T16:42:10;11.90;91.30
22738;DHT22;11536;50.860;4.286;2023-04-03T16:44:36;11.80;90.20
22738;DHT22;11536;50.860;4.286;2023-04-03T16:47:02;11.70;90.20
22738;DHT22;11536;50.860;4.286;2023-04-03T16:49:28;11.70;90.40
22738;DHT22;11536;50.860;4.286;2023-04-03T16:51:58;11.60;89.40
22738;DHT22;11536;50.860;4.286;2023-04-03T16:54:24;11.60;90.70
22738;DHT22;11536;50.860;4.286;2023-04-03T16:56:50;11.50;92.00
22738;DHT22;11536;50.860;4.286;2023-04-03T16:59:49;11.50;91.80
22738;DHT22;11536;50.860;4.286;2023-04-03T17:02:15;11.50;90.80
22738;DHT22;11536;50.860;4.286;2023-04-03T17:04:41;11.40;91.90
22738;DHT22;11536;50.860;4.286;2023-04-03T17:07:06;11.40;91.80
22738;DHT22;11536;50.860;4.286;2023-04-03T17:09:33;11.40;91.60
22738;DHT22;11536;50.860;4.286;2023-04-03T17:12:00;11.30;91.70
22738;DHT22;11536;50.860;4.286;2023-04-03T17:14:26;11.20;90.70
22738;DHT22;11536;50.860;4.286;2023-04-03T17:16:52;11.10;92.50
22738;DHT22;11536;50.860;4.286;2023-04-03T17:19:17;11.10;92.20
22738;DHT22;11536;50.860;4.286;2023-04-03T17:21:44;11.10;93.40
22738;DHT22;11536;50.860;4.286;2023-04-03T17:24:11;11.20;93.00
22738;DHT22;11536;50.860;4.286;2023-04-03T17:26:39;11.10;92.60
22738;DHT22;11536;50.860;4.286;2023-04-03T17:29:06;11.10;93.50
22738;DHT22;11536;50.860;4.286;2023-04-03T17:31:31;11.10;91.80
22738;DHT22;11536;50.860;4.286;2023-04-03T17:33:57;11.00;91.50
22738;DHT22;11536;50.860;4.286;2023-04-03T17:36:27;11.00;92.80
22738;DHT22;11536;50.860;4.286;2023-04-03T17:38:52;10.90;91.60
22738;DHT22;11536;50.860;4.286;2023-04-03T17:41:20;10.90;92.30
22738;DHT22;11536;50.860;4.286;2023-04-03T17:43:46;10.80;92.00
22738;DHT22;11536;50.860;4.286;2023-04-03T17:46:12;10.70;92.60
22738;DHT22;11536;50.860;4.286;2023-04-03T17:48:39;10.90;92.70
22738;DHT22;11536;50.860;4.286;2023-04-03T17:51:08;10.70;92.90
22738;DHT22;11536;50.860;4.286;2023-04-03T17:53:34;10.70;93.10
22738;DHT22;11536;50.860;4.286;2023-04-03T17:56:12;10.70;92.10